sensor_id;sensor_type;location;lat;lon;timestamp;pressure;altitude;pressure_sealevel;temperature;humidity
76746;BME280;65671;49.976;20.038;2022-12-17T00:02:00;97742.03;;;-3.08;87.01
76746;BME280;65671;49.976;20.038;2022-12-17T00:04:44;97761.88;;;-2.80;86.87
76746;BME280;65671;49.976;20.038;2022-12-17T00:07:28;97754.72;;;-2.71;85.38
76746;BME280;65671;49.976;20.038;2022-12-17T00:10:12;97753.63;;;-2.61;85.60
76746;BME280;65671;49.976;20.038;2022-12-17T00:12:56;97757.34;;;-2.71;86.68
76746;BME280;65671;49.976;20.038;2022-12-17T00:15:40;97758.59;;;-2.68;86.75
76746;BME280;65671;49.976;20.038;2022-12-17T00:18:25;97762.38;;;-2.44;84.41
76746;BME280;65671;49.976;20.038;2022-12-17T00:21:09;97755.50;;;-2.53;85.17
76746;BME280;65671;49.976;20.038;2022-12-17T00:23:53;97762.34;;;-2.87;84.83
76746;BME280;65671;49.976;20.038;2022-12-17T00:26:37;97763.44;;;-2.62;85.48
76746;BME280;65671;49.976;20.038;2022-12-17T00:29:21;97763.16;;;-2.60;85.17
76746;BME280;65671;49.976;20.038;2022-12-17T00:32:05;97775.59;;;-2.87;86.73
76746;BME280;65671;49.976;20.038;2022-12-17T00:34:50;97778.06;;;-2.90;85.48
76746;BME280;65671;49.976;20.038;2022-12-17T00:37:36;97781.97;;;-2.79;85.73
76746;BME280;65671;49.976;20.038;2022-12-17T00:40:20;97773.34;;;-3.19;87.12
76746;BME280;65671;49.976;20.038;2022-12-17T00:43:11;97775.47;;;-3.29;87.21
76746;BME280;65671;49.976;20.038;2022-12-17T00:45:55;97788.09;;;-3.26;86.61
76746;BME280;65671;49.976;20.038;2022-12-17T00:48:39;97781.59;;;-3.12;86.35
76746;BME280;65671;49.976;20.038;2022-12-17T00:51:24;97784.16;;;-2.90;85.73
76746;BME280;65671;49.976;20.038;2022-12-17T00:54:08;97791.16;;;-2.94;86.86
76746;BME280;65671;49.976;20.038;2022-12-17T00:56:52;97801.59;;;-2.89;85.53
76746;BME280;65671;49.976;20.038;2022-12-17T00:59:36;97792.41;;;-2.91;86.27
76746;BME280;65671;49.976;20.038;2022-12-17T01:02:21;97800.84;;;-2.80;85.33
76746;BME280;65671;49.976;20.038;2022-12-17T01:05:05;97811.19;;;-3.10;86.46
76746;BME280;65671;49.976;20.038;2022-12-17T01:07:49;97817.69;;;-3.24;86.41
76746;BME280;65671;49.976;20.038;2022-12-17T01:10:34;97826.81;;;-3.00;85.75
76746;BME280;65671;49.976;20.038;2022-12-17T01:13:21;97819.44;;;-3.11;85.80
76746;BME280;65671;49.976;20.038;2022-12-17T01:16:11;97830.88;;;-2.94;86.10
76746;BME280;65671;49.976;20.038;2022-12-17T01:18:55;97824.69;;;-2.80;85.65
76746;BME280;65671;49.976;20.038;2022-12-17T01:21:43;97821.69;;;-2.88;84.98
76746;BME280;65671;49.976;20.038;2022-12-17T01:24:28;97832.44;;;-2.93;85.10
76746;BME280;65671;49.976;20.038;2022-12-17T01:27:12;97850.47;;;-3.03;86.25
76746;BME280;65671;49.976;20.038;2022-12-17T01:29:56;97853.28;;;-3.00;86.00
76746;BME280;65671;49.976;20.038;2022-12-17T01:32:40;97850.88;;;-2.79;84.64
76746;BME280;65671;49.976;20.038;2022-12-17T01:35:24;97840.91;;;-2.73;84.78
76746;BME280;65671;49.976;20.038;2022-12-17T01:38:14;97838.09;;;-2.68;84.13
76746;BME280;65671;49.976;20.038;2022-12-17T01:40:59;97834.38;;;-3.15;85.32
76746;BME280;65671;49.976;20.038;2022-12-17T01:43:43;97844.38;;;-3.04;85.36
76746;BME280;65671;49.976;20.038;2022-12-17T01:46:32;97847.50;;;-3.10;85.16
76746;BME280;65671;49.976;20.038;2022-12-17T01:49:18;97839.81;;;-3.20;87.11
76746;BME280;65671;49.976;20.038;2022-12-17T01:52:03;97832.03;;;-3.25;85.91
76746;BME280;65671;49.976;20.038;2022-12-17T01:54:48;97824.47;;;-3.41;87.15
76746;BME280;65671;49.976;20.038;2022-12-17T01:57:33;97829.38;;;-3.25;86.60
76746;BME280;65671;49.976;20.038;2022-12-17T02:00:18;97830.78;;;-3.28;85.92
76746;BME280;65671;49.976;20.038;2022-12-17T02:03:02;97835.63;;;-3.13;85.84
76746;BME280;65671;49.976;20.038;2022-12-17T02:12:17;97821.31;;;-3.12;85.46
76746;BME280;65671;49.976;20.038;2022-12-17T02:15:15;97822.38;;;-3.13;85.84
76746;BME280;65671;49.976;20.038;2022-12-17T02:18:07;97824.56;;;-3.15;85.21
76746;BME280;65671;49.976;20.038;2022-12-17T02:20:54;97829.41;;;-3.17;86.36
76746;BME280;65671;49.976;20.038;2022-12-17T02:29:18;97810.97;;;-3.30;86.10
76746;BME280;65671;49.976;20.038;2022-12-17T02:32:03;97802.66;;;-3.46;86.75
76746;BME280;65671;49.976;20.038;2022-12-17T02:34:49;97789.59;;;-3.43;86.17
76746;BME280;65671;49.976;20.038;2022-12-17T02:37:33;97787.09;;;-3.39;86.02
76746;BME280;65671;49.976;20.038;2022-12-17T02:40:19;97775.97;;;-3.58;85.75
76746;BME280;65671;49.976;20.038;2022-12-17T02:43:06;97778.66;;;-3.50;87.05
76746;BME280;65671;49.976;20.038;2022-12-17T02:45:55;97816.78;;;-3.51;87.58
76746;BME280;65671;49.976;20.038;2022-12-17T02:48:39;97839.22;;;-3.48;86.05
76746;BME280;65671;49.976;20.038;2022-12-17T02:51:24;97886.09;;;-3.49;87.22
76746;BME280;65671;49.976;20.038;2022-12-17T02:54:09;97927.81;;;-3.68;85.34
76746;BME280;65671;49.976;20.038;2022-12-17T02:56:53;97922.34;;;-3.71;85.45
76746;BME280;65671;49.976;20.038;2022-12-17T02:59:37;97922.13;;;-3.61;85.85
76746;BME280;65671;49.976;20.038;2022-12-17T03:02:21;97924.81;;;-3.53;85.78
76746;BME280;65671;49.976;20.038;2022-12-17T03:05:05;97923.78;;;-3.43;85.78
76746;BME280;65671;49.976;20.038;2022-12-17T03:07:49;97940.50;;;-3.56;85.79
76746;BME280;65671;49.976;20.038;2022-12-17T03:10:33;97931.59;;;-3.82;86.32
76746;BME280;65671;49.976;20.038;2022-12-17T03:13:25;97924.81;;;-3.53;86.19
76746;BME280;65671;49.976;20.038;2022-12-17T03:16:12;97902.56;;;-3.52;86.36
76746;BME280;65671;49.976;20.038;2022-12-17T03:18:57;97902.69;;;-3.57;86.13
76746;BME280;65671;49.976;20.038;2022-12-17T03:21:41;97915.13;;;-3.57;85.89
76746;BME280;65671;49.976;20.038;2022-12-17T03:24:26;97920.78;;;-3.72;85.79
76746;BME280;65671;49.976;20.038;2022-12-17T03:27:11;97910.63;;;-3.79;86.29
76746;BME280;65671;49.976;20.038;2022-12-17T03:29:55;97902.38;;;-3.55;85.85
76746;BME280;65671;49.976;20.038;2022-12-17T03:32:39;97906.47;;;-3.71;86.87
76746;BME280;65671;49.976;20.038;2022-12-17T03:35:23;97910.47;;;-3.60;85.66
76746;BME280;65671;49.976;20.038;2022-12-17T03:38:08;97901.38;;;-3.68;85.06
76746;BME280;65671;49.976;20.038;2022-12-17T03:40:52;97902.16;;;-3.67;85.80
76746;BME280;65671;49.976;20.038;2022-12-17T03:43:36;97897.28;;;-3.74;86.33
76746;BME280;65671;49.976;20.038;2022-12-17T03:46:20;97889.56;;;-3.62;85.40
76746;BME280;65671;49.976;20.038;2022-12-17T03:49:05;97890.72;;;-3.76;85.49
76746;BME280;65671;49.976;20.038;2022-12-17T03:51:49;97888.50;;;-3.83;85.85
76746;BME280;65671;49.976;20.038;2022-12-17T03:54:33;97893.25;;;-3.71;84.96
76746;BME280;65671;49.976;20.038;2022-12-17T03:57:16;97886.34;;;-3.81;85.78
76746;BME280;65671;49.976;20.038;2022-12-17T04:00:01;97902.97;;;-3.80;85.42
76746;BME280;65671;49.976;20.038;2022-12-17T04:02:44;97908.41;;;-3.63;85.56
76746;BME280;65671;49.976;20.038;2022-12-17T04:05:28;97910.31;;;-3.55;85.37
76746;BME280;65671;49.976;20.038;2022-12-17T04:08:12;97909.47;;;-3.86;85.28
76746;BME280;65671;49.976;20.038;2022-12-17T04:13:28;97928.41;;;-3.71;84.95
76746;BME280;65671;49.976;20.038;2022-12-17T04:16:12;97929.03;;;-3.74;85.57
76746;BME280;65671;49.976;20.038;2022-12-17T04:18:56;97924.09;;;-3.67;85.05
76746;BME280;65671;49.976;20.038;2022-12-17T04:21:40;97922.88;;;-3.83;85.76
76746;BME280;65671;49.976;20.038;2022-12-17T04:24:24;97929.88;;;-3.87;85.15
76746;BME280;65671;49.976;20.038;2022-12-17T04:27:08;97947.00;;;-3.84;84.57
76746;BME280;65671;49.976;20.038;2022-12-17T04:29:52;97936.00;;;-3.78;85.29
76746;BME280;65671;49.976;20.038;2022-12-17T04:32:36;97950.78;;;-3.77;84.84
76746;BME280;65671;49.976;20.038;2022-12-17T04:35:20;97956.53;;;-3.75;85.74
76746;BME280;65671;49.976;20.038;2022-12-17T04:38:04;97953.44;;;-3.55;84.29
76746;BME280;65671;49.976;20.038;2022-12-17T04:40:48;97946.16;;;-3.71;84.84
76746;BME280;65671;49.976;20.038;2022-12-17T04:43:32;97956.25;;;-3.73;84.53
76746;BME280;65671;49.976;20.038;2022-12-17T04:46:16;97964.19;;;-3.73;85.20
76746;BME280;65671;49.976;20.038;2022-12-17T04:49:00;97961.06;;;-3.75;85.06
76746;BME280;65671;49.976;20.038;2022-12-17T04:51:44;97948.69;;;-3.66;84.81
76746;BME280;65671;49.976;20.038;2022-12-17T04:54:28;97944.72;;;-3.55;84.90
76746;BME280;65671;49.976;20.038;2022-12-17T04:57:12;97943.69;;;-3.68;85.21
76746;BME280;65671;49.976;20.038;2022-12-17T04:59:56;97961.44;;;-3.68;85.69
76746;BME280;65671;49.976;20.038;2022-12-17T05:02:40;97945.97;;;-3.75;84.94
76746;BME280;65671;49.976;20.038;2022-12-17T05:05:24;97952.22;;;-3.71;85.41
76746;BME280;65671;49.976;20.038;2022-12-17T05:08:08;97954.22;;;-3.76;84.92
76746;BME280;65671;49.976;20.038;2022-12-17T05:10:52;97969.22;;;-3.85;86.06
76746;BME280;65671;49.976;20.038;2022-12-17T05:13:36;97978.03;;;-3.76;84.65
76746;BME280;65671;49.976;20.038;2022-12-17T05:16:20;97975.19;;;-3.80;85.61
76746;BME280;65671;49.976;20.038;2022-12-17T05:19:04;97973.72;;;-3.86;85.07
76746;BME280;65671;49.976;20.038;2022-12-17T05:21:48;97975.16;;;-3.66;85.61
76746;BME280;65671;49.976;20.038;2022-12-17T05:24:32;97984.03;;;-3.84;86.29
76746;BME280;65671;49.976;20.038;2022-12-17T05:27:16;97964.53;;;-3.88;84.36
76746;BME280;65671;49.976;20.038;2022-12-17T05:29:59;97973.78;;;-4.00;84.88
76746;BME280;65671;49.976;20.038;2022-12-17T05:32:43;97985.06;;;-4.08;86.62
76746;BME280;65671;49.976;20.038;2022-12-17T05:35:27;97987.47;;;-3.98;85.02
76746;BME280;65671;49.976;20.038;2022-12-17T05:38:11;97984.63;;;-3.87;85.55
76746;BME280;65671;49.976;20.038;2022-12-17T05:40:57;97974.91;;;-3.78;85.39
76746;BME280;65671;49.976;20.038;2022-12-17T05:43:41;97972.94;;;-3.86;86.43
76746;BME280;65671;49.976;20.038;2022-12-17T05:46:25;97973.97;;;-3.96;86.70
76746;BME280;65671;49.976;20.038;2022-12-17T05:49:10;97992.16;;;-3.95;85.73
76746;BME280;65671;49.976;20.038;2022-12-17T05:51:54;97991.56;;;-3.91;85.87
76746;BME280;65671;49.976;20.038;2022-12-17T05:54:38;97988.94;;;-3.91;86.43
76746;BME280;65671;49.976;20.038;2022-12-17T05:57:22;97987.84;;;-3.90;85.65
76746;BME280;65671;49.976;20.038;2022-12-17T06:00:07;97996.66;;;-3.95;86.54
76746;BME280;65671;49.976;20.038;2022-12-17T06:02:59;97977.25;;;-4.26;86.91
76746;BME280;65671;49.976;20.038;2022-12-17T06:05:43;98000.53;;;-4.15;86.51
76746;BME280;65671;49.976;20.038;2022-12-17T06:08:27;98001.59;;;-4.02;86.96
76746;BME280;65671;49.976;20.038;2022-12-17T06:11:11;98018.72;;;-4.00;86.17
76746;BME280;65671;49.976;20.038;2022-12-17T06:13:56;98028.03;;;-4.16;86.24
76746;BME280;65671;49.976;20.038;2022-12-17T06:16:40;98026.47;;;-4.17;86.69
76746;BME280;65671;49.976;20.038;2022-12-17T06:19:24;98036.84;;;-4.07;87.71
76746;BME280;65671;49.976;20.038;2022-12-17T06:22:08;98045.44;;;-3.87;85.98
76746;BME280;65671;49.976;20.038;2022-12-17T06:24:52;98050.38;;;-4.08;87.75
76746;BME280;65671;49.976;20.038;2022-12-17T06:27:35;98060.03;;;-4.04;86.36
76746;BME280;65671;49.976;20.038;2022-12-17T06:30:20;98063.19;;;-4.02;86.19
76746;BME280;65671;49.976;20.038;2022-12-17T06:33:08;98070.44;;;-3.93;86.71
76746;BME280;65671;49.976;20.038;2022-12-17T06:35:53;98067.03;;;-4.08;87.23
76746;BME280;65671;49.976;20.038;2022-12-17T06:38:38;98061.31;;;-4.01;86.03
76746;BME280;65671;49.976;20.038;2022-12-17T06:41:22;98067.50;;;-4.06;86.87
76746;BME280;65671;49.976;20.038;2022-12-17T06:44:06;98071.72;;;-4.05;86.95
76746;BME280;65671;49.976;20.038;2022-12-17T06:46:50;98072.09;;;-3.98;86.57
76746;BME280;65671;49.976;20.038;2022-12-17T06:49:34;98077.19;;;-4.01;85.50
76746;BME280;65671;49.976;20.038;2022-12-17T06:52:18;98092.09;;;-4.05;86.81
76746;BME280;65671;49.976;20.038;2022-12-17T06:55:02;98111.66;;;-3.92;85.61
76746;BME280;65671;49.976;20.038;2022-12-17T06:57:46;98118.63;;;-3.97;86.93
76746;BME280;65671;49.976;20.038;2022-12-17T07:00:30;98137.50;;;-3.89;85.86
76746;BME280;65671;49.976;20.038;2022-12-17T07:03:14;98145.16;;;-4.02;85.42
76746;BME280;65671;49.976;20.038;2022-12-17T07:05:59;98149.94;;;-4.04;86.24
76746;BME280;65671;49.976;20.038;2022-12-17T07:08:44;98155.34;;;-4.09;87.00
76746;BME280;65671;49.976;20.038;2022-12-17T07:11:28;98147.63;;;-4.05;85.13
76746;BME280;65671;49.976;20.038;2022-12-17T07:14:17;98143.28;;;-4.15;85.50
76746;BME280;65671;49.976;20.038;2022-12-17T07:17:01;98155.13;;;-4.12;86.83
76746;BME280;65671;49.976;20.038;2022-12-17T07:19:45;98166.09;;;-4.19;86.32
76746;BME280;65671;49.976;20.038;2022-12-17T07:22:29;98164.41;;;-4.28;87.20
76746;BME280;65671;49.976;20.038;2022-12-17T07:25:13;98161.78;;;-4.15;87.48
76746;BME280;65671;49.976;20.038;2022-12-17T07:27:56;98162.47;;;-4.23;86.73
76746;BME280;65671;49.976;20.038;2022-12-17T07:30:40;98159.25;;;-4.06;87.21
76746;BME280;65671;49.976;20.038;2022-12-17T07:33:24;98156.22;;;-4.00;85.53
76746;BME280;65671;49.976;20.038;2022-12-17T07:36:09;98153.97;;;-3.92;84.79
76746;BME280;65671;49.976;20.038;2022-12-17T07:38:52;98163.88;;;-3.84;85.16
76746;BME280;65671;49.976;20.038;2022-12-17T07:41:37;98173.47;;;-3.75;84.34
76746;BME280;65671;49.976;20.038;2022-12-17T07:44:21;98174.06;;;-3.64;84.50
76746;BME280;65671;49.976;20.038;2022-12-17T07:47:05;98192.28;;;-3.76;84.09
76746;BME280;65671;49.976;20.038;2022-12-17T07:49:49;98180.34;;;-3.74;84.89
76746;BME280;65671;49.976;20.038;2022-12-17T07:52:33;98183.47;;;-3.58;85.11
76746;BME280;65671;49.976;20.038;2022-12-17T07:55:17;98167.13;;;-3.60;85.28
76746;BME280;65671;49.976;20.038;2022-12-17T07:58:04;98190.44;;;-3.62;85.31
76746;BME280;65671;49.976;20.038;2022-12-17T08:00:48;98199.84;;;-3.56;83.92
76746;BME280;65671;49.976;20.038;2022-12-17T08:03:32;98205.94;;;-3.69;84.46
76746;BME280;65671;49.976;20.038;2022-12-17T08:06:16;98211.69;;;-3.81;84.63
76746;BME280;65671;49.976;20.038;2022-12-17T08:09:00;98222.03;;;-3.98;85.59
76746;BME280;65671;49.976;20.038;2022-12-17T08:11:48;98223.72;;;-4.02;85.48
76746;BME280;65671;49.976;20.038;2022-12-17T08:14:32;98231.56;;;-3.97;85.70
76746;BME280;65671;49.976;20.038;2022-12-17T08:17:16;98234.94;;;-4.10;85.98
76746;BME280;65671;49.976;20.038;2022-12-17T08:20:00;98233.03;;;-3.91;85.77
76746;BME280;65671;49.976;20.038;2022-12-17T08:22:45;98230.97;;;-3.94;84.72
76746;BME280;65671;49.976;20.038;2022-12-17T08:25:28;98236.09;;;-3.84;84.60
76746;BME280;65671;49.976;20.038;2022-12-17T08:28:13;98244.25;;;-3.53;83.73
76746;BME280;65671;49.976;20.038;2022-12-17T08:30:57;98253.94;;;-3.76;83.89
76746;BME280;65671;49.976;20.038;2022-12-17T08:33:41;98249.69;;;-3.77;85.35
76746;BME280;65671;49.976;20.038;2022-12-17T08:36:24;98255.09;;;-3.68;83.95
76746;BME280;65671;49.976;20.038;2022-12-17T08:39:09;98261.56;;;-3.74;85.58
76746;BME280;65671;49.976;20.038;2022-12-17T08:42:06;98252.44;;;-3.68;83.91
76746;BME280;65671;49.976;20.038;2022-12-17T08:44:51;98267.09;;;-3.89;85.71
76746;BME280;65671;49.976;20.038;2022-12-17T08:47:35;98269.06;;;-3.49;83.39
76746;BME280;65671;49.976;20.038;2022-12-17T08:50:19;98273.84;;;-3.51;83.17
76746;BME280;65671;49.976;20.038;2022-12-17T08:53:03;98275.63;;;-3.60;84.11
76746;BME280;65671;49.976;20.038;2022-12-17T08:55:48;98284.16;;;-3.50;83.72
76746;BME280;65671;49.976;20.038;2022-12-17T08:58:32;98287.84;;;-3.51;84.37
76746;BME280;65671;49.976;20.038;2022-12-17T09:01:16;98294.06;;;-3.28;82.33
76746;BME280;65671;49.976;20.038;2022-12-17T09:04:00;98292.00;;;-3.17;82.98
76746;BME280;65671;49.976;20.038;2022-12-17T09:06:44;98284.25;;;-3.14;81.52
76746;BME280;65671;49.976;20.038;2022-12-17T09:09:28;98282.06;;;-3.39;82.10
76746;BME280;65671;49.976;20.038;2022-12-17T09:12:13;98286.22;;;-3.19;83.60
76746;BME280;65671;49.976;20.038;2022-12-17T09:14:57;98285.53;;;-3.25;82.24
76746;BME280;65671;49.976;20.038;2022-12-17T09:17:41;98294.25;;;-3.11;81.86
76746;BME280;65671;49.976;20.038;2022-12-17T09:20:25;98278.56;;;-3.21;82.38
76746;BME280;65671;49.976;20.038;2022-12-17T09:23:13;98277.78;;;-3.08;82.00
76746;BME280;65671;49.976;20.038;2022-12-17T09:25:58;98273.16;;;-3.16;82.69
76746;BME280;65671;49.976;20.038;2022-12-17T09:28:42;98276.88;;;-3.03;82.73
76746;BME280;65671;49.976;20.038;2022-12-17T09:31:26;98276.97;;;-2.95;81.31
76746;BME280;65671;49.976;20.038;2022-12-17T09:34:10;98275.91;;;-3.07;81.74
76746;BME280;65671;49.976;20.038;2022-12-17T09:36:54;98278.47;;;-3.02;82.65
76746;BME280;65671;49.976;20.038;2022-12-17T09:39:38;98278.97;;;-3.14;81.50
76746;BME280;65671;49.976;20.038;2022-12-17T09:42:24;98269.34;;;-3.37;81.89
76746;BME280;65671;49.976;20.038;2022-12-17T09:50:59;98261.00;;;-3.03;81.26
76746;BME280;65671;49.976;20.038;2022-12-17T09:53:45;98265.00;;;-3.06;81.75
76746;BME280;65671;49.976;20.038;2022-12-17T09:56:31;98275.91;;;-3.07;81.27
76746;BME280;65671;49.976;20.038;2022-12-17T09:59:20;98270.03;;;-3.18;82.71
76746;BME280;65671;49.976;20.038;2022-12-17T10:02:23;98274.13;;;-3.39;82.69
76746;BME280;65671;49.976;20.038;2022-12-17T10:05:13;98287.78;;;-3.46;84.03
76746;BME280;65671;49.976;20.038;2022-12-17T10:07:59;98293.53;;;-3.57;82.98
76746;BME280;65671;49.976;20.038;2022-12-17T10:10:46;98299.00;;;-3.67;83.61
76746;BME280;65671;49.976;20.038;2022-12-17T10:13:30;98296.16;;;-3.71;82.52
76746;BME280;65671;49.976;20.038;2022-12-17T10:19:28;98291.34;;;-3.82;83.46
76746;BME280;65671;49.976;20.038;2022-12-17T10:22:14;98310.66;;;-3.68;82.40
76746;BME280;65671;49.976;20.038;2022-12-17T10:25:04;98310.19;;;-3.70;84.07
76746;BME280;65671;49.976;20.038;2022-12-17T10:27:48;98305.25;;;-3.77;84.19
76746;BME280;65671;49.976;20.038;2022-12-17T10:30:33;98297.03;;;-3.75;83.10
76746;BME280;65671;49.976;20.038;2022-12-17T10:33:18;98310.66;;;-3.68;82.09
76746;BME280;65671;49.976;20.038;2022-12-17T10:36:05;98312.91;;;-3.75;82.72
76746;BME280;65671;49.976;20.038;2022-12-17T10:39:02;98306.94;;;-3.81;83.67
76746;BME280;65671;49.976;20.038;2022-12-17T10:41:46;98316.72;;;-3.81;82.73
76746;BME280;65671;49.976;20.038;2022-12-17T10:44:35;98327.31;;;-3.81;82.86
76746;BME280;65671;49.976;20.038;2022-12-17T10:47:21;98332.28;;;-3.80;84.09
76746;BME280;65671;49.976;20.038;2022-12-17T10:50:10;98338.59;;;-3.95;82.45
76746;BME280;65671;49.976;20.038;2022-12-17T10:52:55;98331.47;;;-3.94;84.12
76746;BME280;65671;49.976;20.038;2022-12-17T10:56:22;98325.13;;;-4.12;84.52
76746;BME280;65671;49.976;20.038;2022-12-17T10:59:11;98333.19;;;-4.03;84.25
76746;BME280;65671;49.976;20.038;2022-12-17T11:01:57;98328.25;;;-3.91;83.75
76746;BME280;65671;49.976;20.038;2022-12-17T11:04:51;98330.53;;;-3.84;83.15
76746;BME280;65671;49.976;20.038;2022-12-17T11:07:39;98331.09;;;-3.87;82.27
76746;BME280;65671;49.976;20.038;2022-12-17T11:10:27;98333.41;;;-4.00;82.54
76746;BME280;65671;49.976;20.038;2022-12-17T11:13:16;98349.06;;;-4.03;83.85
76746;BME280;65671;49.976;20.038;2022-12-17T11:16:09;98331.34;;;-4.03;82.97
76746;BME280;65671;49.976;20.038;2022-12-17T11:21:55;98347.75;;;-3.87;82.72
76746;BME280;65671;49.976;20.038;2022-12-17T11:27:36;98340.09;;;-3.88;81.78
76746;BME280;65671;49.976;20.038;2022-12-17T11:30:26;98354.56;;;-4.00;83.69
76746;BME280;65671;49.976;20.038;2022-12-17T11:33:26;98357.44;;;-3.96;83.73
76746;BME280;65671;49.976;20.038;2022-12-17T11:36:19;98364.66;;;-4.02;83.18
76746;BME280;65671;49.976;20.038;2022-12-17T11:39:26;98358.28;;;-4.01;83.19
76746;BME280;65671;49.976;20.038;2022-12-17T11:42:55;98380.66;;;-3.93;82.61
76746;BME280;65671;49.976;20.038;2022-12-17T11:46:05;98385.06;;;-3.88;81.74
76746;BME280;65671;49.976;20.038;2022-12-17T11:52:03;98384.44;;;-4.18;83.05
76746;BME280;65671;49.976;20.038;2022-12-17T11:55:02;98387.88;;;-4.17;84.05
76746;BME280;65671;49.976;20.038;2022-12-17T11:58:03;98372.22;;;-4.32;84.76
76746;BME280;65671;49.976;20.038;2022-12-17T12:00:54;98385.22;;;-4.17;84.27
76746;BME280;65671;49.976;20.038;2022-12-17T12:03:57;98377.72;;;-4.10;83.71
76746;BME280;65671;49.976;20.038;2022-12-17T12:09:53;98393.66;;;-4.15;83.17
76746;BME280;65671;49.976;20.038;2022-12-17T12:16:10;98399.88;;;-4.25;82.92
76746;BME280;65671;49.976;20.038;2022-12-17T12:23:17;98398.22;;;-4.21;83.18
76746;BME280;65671;49.976;20.038;2022-12-17T12:32:48;98434.63;;;-4.36;84.20
76746;BME280;65671;49.976;20.038;2022-12-17T12:35:39;98441.06;;;-4.42;84.28
76746;BME280;65671;49.976;20.038;2022-12-17T12:38:31;98433.44;;;-4.44;84.61
76746;BME280;65671;49.976;20.038;2022-12-17T12:44:06;98432.63;;;-4.44;84.36
76746;BME280;65671;49.976;20.038;2022-12-17T12:46:59;98442.78;;;-4.33;84.53
76746;BME280;65671;49.976;20.038;2022-12-17T12:49:59;98450.34;;;-4.45;85.88
76746;BME280;65671;49.976;20.038;2022-12-17T12:52:45;98443.53;;;-4.51;85.37
76746;BME280;65671;49.976;20.038;2022-12-17T12:55:37;98463.63;;;-4.50;85.27
76746;BME280;65671;49.976;20.038;2022-12-17T12:58:27;98464.34;;;-4.44;86.12
76746;BME280;65671;49.976;20.038;2022-12-17T13:01:12;98477.84;;;-4.46;85.42
76746;BME280;65671;49.976;20.038;2022-12-17T13:03:57;98476.66;;;-4.35;85.20
76746;BME280;65671;49.976;20.038;2022-12-17T13:06:48;98481.22;;;-4.40;84.80
76746;BME280;65671;49.976;20.038;2022-12-17T13:14:58;98498.13;;;-4.41;86.56
76746;BME280;65671;49.976;20.038;2022-12-17T13:17:33;98494.22;;;-4.44;86.55
76746;BME280;65671;49.976;20.038;2022-12-17T13:23:04;98503.03;;;-4.30;84.63
76746;BME280;65671;49.976;20.038;2022-12-17T13:25:38;98508.66;;;-4.36;85.48
76746;BME280;65671;49.976;20.038;2022-12-17T13:28:04;98508.88;;;-4.33;85.26
76746;BME280;65671;49.976;20.038;2022-12-17T13:30:34;98504.59;;;-4.29;85.01
76746;BME280;65671;49.976;20.038;2022-12-17T13:38:20;98523.28;;;-4.44;85.17
76746;BME280;65671;49.976;20.038;2022-12-17T13:43:37;98530.19;;;-4.48;85.04
76746;BME280;65671;49.976;20.038;2022-12-17T13:46:03;98531.16;;;-4.39;86.32
76746;BME280;65671;49.976;20.038;2022-12-17T13:48:29;98538.09;;;-4.48;86.51
76746;BME280;65671;49.976;20.038;2022-12-17T13:50:59;98542.81;;;-4.40;85.64
76746;BME280;65671;49.976;20.038;2022-12-17T13:53:26;98548.34;;;-4.41;85.51
76746;BME280;65671;49.976;20.038;2022-12-17T13:55:55;98549.47;;;-4.47;87.42
76746;BME280;65671;49.976;20.038;2022-12-17T13:58:26;98557.63;;;-4.44;86.19
76746;BME280;65671;49.976;20.038;2022-12-17T14:01:03;98571.28;;;-4.37;86.79
76746;BME280;65671;49.976;20.038;2022-12-17T14:03:29;98566.59;;;-4.40;85.77
76746;BME280;65671;49.976;20.038;2022-12-17T14:05:55;98573.44;;;-4.39;86.62
76746;BME280;65671;49.976;20.038;2022-12-17T14:08:23;98574.78;;;-4.41;86.39
76746;BME280;65671;49.976;20.038;2022-12-17T14:10:53;98575.81;;;-4.37;85.80
76746;BME280;65671;49.976;20.038;2022-12-17T14:13:41;98576.13;;;-4.44;87.16
76746;BME280;65671;49.976;20.038;2022-12-17T14:16:07;98575.63;;;-4.46;87.72
76746;BME280;65671;49.976;20.038;2022-12-17T14:18:33;98586.47;;;-4.47;86.51
76746;BME280;65671;49.976;20.038;2022-12-17T14:20:59;98588.22;;;-4.38;85.98
76746;BME280;65671;49.976;20.038;2022-12-17T14:23:29;98590.88;;;-4.38;85.93
76746;BME280;65671;49.976;20.038;2022-12-17T14:25:56;98596.16;;;-4.38;86.72
76746;BME280;65671;49.976;20.038;2022-12-17T14:28:33;98608.09;;;-4.40;85.88
76746;BME280;65671;49.976;20.038;2022-12-17T14:31:07;98610.00;;;-4.46;86.72
76746;BME280;65671;49.976;20.038;2022-12-17T14:33:41;98614.66;;;-4.38;85.82
76746;BME280;65671;49.976;20.038;2022-12-17T14:36:21;98613.56;;;-4.37;85.87
76746;BME280;65671;49.976;20.038;2022-12-17T14:41:19;98620.81;;;-4.47;86.76
76746;BME280;65671;49.976;20.038;2022-12-17T14:44:04;98615.72;;;-4.39;85.68
76746;BME280;65671;49.976;20.038;2022-12-17T14:46:31;98626.16;;;-4.53;87.38
76746;BME280;65671;49.976;20.038;2022-12-17T14:49:02;98630.84;;;-4.44;87.11
76746;BME280;65671;49.976;20.038;2022-12-17T14:51:39;98634.84;;;-4.47;85.99
76746;BME280;65671;49.976;20.038;2022-12-17T14:56:39;98640.19;;;-4.57;87.04
76746;BME280;65671;49.976;20.038;2022-12-17T14:59:35;98651.28;;;-4.55;86.39
76746;BME280;65671;49.976;20.038;2022-12-17T15:02:18;98659.66;;;-4.48;86.48
76746;BME280;65671;49.976;20.038;2022-12-17T15:04:45;98659.66;;;-4.43;86.56
76746;BME280;65671;49.976;20.038;2022-12-17T15:07:19;98661.00;;;-4.51;86.71
76746;BME280;65671;49.976;20.038;2022-12-17T15:09:46;98665.50;;;-4.46;87.43
76746;BME280;65671;49.976;20.038;2022-12-17T15:12:11;98680.78;;;-4.43;86.01
76746;BME280;65671;49.976;20.038;2022-12-17T15:14:37;98668.31;;;-4.37;86.41
76746;BME280;65671;49.976;20.038;2022-12-17T15:17:02;98678.03;;;-4.33;86.40
76746;BME280;65671;49.976;20.038;2022-12-17T15:19:28;98679.56;;;-4.27;86.84
76746;BME280;65671;49.976;20.038;2022-12-17T15:21:53;98676.75;;;-4.35;86.14
76746;BME280;65671;49.976;20.038;2022-12-17T15:24:19;98684.13;;;-4.32;85.55
76746;BME280;65671;49.976;20.038;2022-12-17T15:26:45;98670.16;;;-4.38;86.75
76746;BME280;65671;49.976;20.038;2022-12-17T15:29:11;98670.22;;;-4.43;86.81
76746;BME280;65671;49.976;20.038;2022-12-17T15:31:37;98678.16;;;-4.43;86.75